Time;durP1;ratioP1;P1;durP2;ratioP2;P2;SDS_P1;SDS_P2;PMS_P1;PMS_P2;Temp;Humidity;BMP_temperature;BMP_pressure;BME280_temperature;BME280_humidity;BME280_pressure;Samples;Min_cycle;Max_cycle;Signal;HPM_P1;HPM_P2
2022/02/12 00:00:56;;;;;;;41.73;18.75;;;;;;;9.40;53.57;102080.01;1672136;85;21054;-72
2022/02/12 00:03:24;;;;;;;32.88;18.67;;;;;;;9.39;53.68;102078.29;1668226;85;21064;-72
2022/02/12 00:05:50;;;;;;;32.70;18.98;;;;;;;9.39;53.95;102073.09;1649380;85;21049;-72
2022/02/12 00:08:17;;;;;;;34.80;20.25;;;;;;;9.37;53.90;102069.63;1669591;85;21068;-73
2022/02/12 00:10:44;;;;;;;36.17;18.75;;;;;;;9.35;53.83;102071.34;1665851;85;21072;-72
2022/02/12 00:13:11;;;;;;;41.73;20.50;;;;;;;9.33;53.64;102073.07;1674862;85;21015;-72
2022/02/12 00:15:41;;;;;;;38.55;18.65;;;;;;;9.33;53.72;102073.07;1675051;85;21497;-72
2022/02/12 00:18:09;;;;;;;32.33;17.95;;;;;;;9.33;53.98;102069.17;1668187;85;21044;-72
2022/02/12 00:20:36;;;;;;;37.03;17.57;;;;;;;9.33;54.00;102070.48;1639669;85;21464;-72
2022/02/12 00:23:02;;;;;;;30.17;16.48;;;;;;;9.31;54.09;102069.60;1641285;86;21088;-72
2022/02/12 00:25:29;;;;;;;29.72;15.95;;;;;;;9.32;54.29;102073.92;1658144;85;21021;-72
2022/02/12 00:27:56;;;;;;;26.27;15.63;;;;;;;9.34;54.61;102073.91;1672151;85;21045;-72
2022/02/12 00:30:22;;;;;;;26.90;15.95;;;;;;;9.35;54.70;102070.05;1676197;85;22051;-73
2022/02/12 00:32:49;;;;;;;25.52;16.30;;;;;;;9.38;54.72;102066.14;1678502;85;21022;-72
2022/02/12 00:35:16;;;;;;;20.70;14.55;;;;;;;9.39;54.84;102067.90;1669797;85;21008;-72
2022/02/12 00:37:43;;;;;;;23.85;13.35;;;;;;;9.43;55.04;102059.67;1674390;85;21105;-72
2022/02/12 00:40:11;;;;;;;16.17;12.78;;;;;;;9.47;55.16;102063.59;1680289;85;21070;-72
2022/02/12 00:42:38;;;;;;;19.82;13.18;;;;;;;9.53;55.17;102065.34;1679658;85;21081;-72
2022/02/12 00:45:07;;;;;;;17.17;12.70;;;;;;;9.59;55.16;102061.03;1682557;85;21042;-71
2022/02/12 00:47:34;;;;;;;14.58;11.65;;;;;;;9.65;55.03;102063.64;1682366;85;21092;-72
2022/02/12 00:50:02;;;;;;;17.42;12.15;;;;;;;9.72;54.90;102062.81;1676264;85;21050;-71
2022/02/12 00:52:30;;;;;;;16.82;12.65;;;;;;;9.79;54.73;102059.34;1630402;87;21113;-71
2022/02/12 00:54:56;;;;;;;15.43;11.57;;;;;;;9.87;54.67;102062.41;1676455;85;21033;-72
2022/02/12 00:57:22;;;;;;;14.00;11.18;;;;;;;9.93;54.55;102059.39;1660324;86;21532;-72
2022/02/12 00:59:49;;;;;;;13.15;10.68;;;;;;;10.01;54.28;102063.29;1649063;86;21550;-72
2022/02/12 01:02:16;;;;;;;14.87;11.90;;;;;;;10.06;54.14;102061.55;1666093;83;21594;-71
2022/02/12 01:04:44;;;;;;;15.78;11.88;;;;;;;10.12;53.93;102056.41;1643268;86;21108;-72
2022/02/12 01:07:11;;;;;;;15.13;11.10;;;;;;;10.18;53.70;102055.11;1655612;85;21097;-71
2022/02/12 01:09:37;;;;;;;15.35;11.75;;;;;;;10.25;53.39;102055.53;1627458;86;21108;-72
2022/02/12 01:12:06;;;;;;;12.53;10.13;;;;;;;10.31;53.00;102052.92;1672103;85;21077;-71
2022/02/12 01:14:33;;;;;;;13.83;11.00;;;;;;;10.37;52.77;102059.43;1673577;85;21592;-71
2022/02/12 01:17:01;;;;;;;14.07;11.45;;;;;;;10.42;52.47;102062.91;1679125;85;21093;-71
2022/02/12 01:19:28;;;;;;;15.00;11.05;;;;;;;10.47;52.24;102055.95;1660857;85;21061;-71
2022/02/12 01:21:54;;;;;;;12.07;10.35;;;;;;;10.50;52.07;102048.16;1669110;85;21021;-71
2022/02/12 01:24:21;;;;;;;12.68;10.43;;;;;;;10.53;51.86;102051.62;1664336;85;21557;-71
2022/02/12 01:26:49;;;;;;;15.10;11.10;;;;;;;10.55;51.71;102052.48;1671915;85;21096;-73
2022/02/12 01:29:15;;;;;;;13.35;10.48;;;;;;;10.58;51.61;102052.92;1662709;85;21059;-71
2022/02/12 01:31:43;;;;;;;12.58;10.88;;;;;;;10.58;51.55;102050.31;1670095;85;21097;-72
2022/02/12 01:34:09;;;;;;;12.40;10.32;;;;;;;10.60;51.51;102053.78;1675856;85;21022;-71
2022/02/12 01:36:36;;;;;;;12.75;10.65;;;;;;;10.61;51.43;102046.42;1666954;85;21094;-70
2022/02/12 01:39:04;;;;;;;13.03;11.12;;;;;;;10.65;51.35;102048.15;1658404;86;21056;-70
2022/02/12 01:41:31;;;;;;;12.93;11.15;;;;;;;10.67;51.28;102043.80;1663317;85;21034;-71
2022/02/12 01:44:10;;;;;;;14.23;10.80;;;;;;;10.71;51.16;102050.74;1676795;85;21098;-71
2022/02/12 01:46:37;;;;;;;13.18;11.45;;;;;;;10.75;51.07;102056.38;1616065;88;21119;-70
2022/02/12 01:49:03;;;;;;;14.18;11.30;;;;;;;10.76;50.93;102050.73;1598847;89;21608;-71
2022/02/12 01:51:31;;;;;;;12.45;10.98;;;;;;;10.76;50.89;102051.58;1596435;89;21697;-70
2022/02/12 01:53:58;;;;;;;12.58;11.28;;;;;;;10.75;50.81;102052.47;1599711;88;21062;-71
2022/02/12 01:56:24;;;;;;;15.43;12.18;;;;;;;10.76;50.81;102054.19;1584749;88;21034;-71
2022/02/12 01:58:50;;;;;;;13.15;11.53;;;;;;;10.76;50.83;102054.19;1617383;87;21072;-70
2022/02/12 02:01:19;;;;;;;12.95;11.57;;;;;;;10.77;50.86;102059.84;1614255;87;21022;-71
2022/02/12 02:03:46;;;;;;;13.83;11.80;;;;;;;10.80;50.88;102053.30;1623935;87;21128;-71
2022/02/12 02:06:13;;;;;;;16.05;12.33;;;;;;;10.83;50.79;102057.22;1624973;88;21020;-71
2022/02/12 02:08:41;;;;;;;14.15;12.18;;;;;;;10.84;50.75;102052.42;1632916;88;21119;-71
2022/02/12 02:11:08;;;;;;;13.68;11.50;;;;;;;10.88;50.67;102048.95;1624548;87;21141;-71
2022/02/12 02:13:34;;;;;;;13.03;11.63;;;;;;;10.89;50.57;102049.39;1624943;88;21033;-70
2022/02/12 02:16:13;;;;;;;14.93;11.93;;;;;;;10.91;50.48;102052.86;1601263;89;21115;-71
2022/02/12 02:18:40;;;;;;;14.28;11.68;;;;;;;10.91;50.38;102059.37;1538464;92;21183;-71
2022/02/12 02:21:07;;;;;;;14.30;11.85;;;;;;;10.91;50.32;102056.77;1542006;92;21050;-70
2022/02/12 02:23:35;;;;;;;15.30;12.58;;;;;;;10.90;50.32;102057.62;1541846;92;21118;-71
2022/02/12 02:26:04;;;;;;;15.53;12.37;;;;;;;10.88;50.36;102054.16;1541097;92;21089;-71
2022/02/12 02:28:31;;;;;;;15.00;12.07;;;;;;;10.87;50.45;102055.04;1534345;93;21127;-71
2022/02/12 02:30:57;;;;;;;14.53;11.60;;;;;;;10.88;50.49;102055.92;1558030;91;21109;-71
2022/02/12 02:33:24;;;;;;;16.20;12.73;;;;;;;10.88;50.40;102060.66;1562479;90;21104;-70
2022/02/12 02:35:51;;;;;;;16.25;12.00;;;;;;;10.91;50.36;102061.97;1547591;91;21060;-70
2022/02/12 02:38:17;;;;;;;14.83;12.30;;;;;;;10.93;50.32;102061.53;1567310;91;21098;-70
2022/02/12 02:40:45;;;;;;;13.43;11.38;;;;;;;10.95;50.26;102063.70;1572121;90;21084;-70
2022/02/12 02:43:12;;;;;;;17.70;12.78;;;;;;;10.98;50.18;102060.23;1552852;90;21088;-70
2022/02/12 02:45:38;;;;;;;15.63;12.63;;;;;;;10.98;50.09;102051.98;1556607;90;21151;-69
2022/02/12 02:48:07;;;;;;;18.37;11.65;;;;;;;10.99;50.04;102060.22;1554437;91;21609;-70
2022/02/12 02:56:05;;;;;;;21.07;13.48;;;;;;;10.96;50.24;102062.84;1553901;91;21064;-70
2022/02/12 02:58:38;;;;;;;23.18;12.55;;;;;;;10.94;50.40;102060.64;1548169;91;21744;-70
2022/02/12 03:01:15;;;;;;;26.30;14.10;;;;;;;10.92;50.58;102057.18;1552482;91;21140;-70
2022/02/12 03:03:45;;;;;;;26.00;13.85;;;;;;;10.93;50.69;102056.33;1561209;90;21191;-71
2022/02/12 03:06:13;;;;;;;22.25;13.32;;;;;;;10.92;50.80;102063.69;1569910;90;21097;-71
2022/02/12 03:08:41;;;;;;;19.62;12.50;;;;;;;10.91;50.88;102060.67;1565061;90;21114;-70
2022/02/12 03:11:10;;;;;;;19.10;11.90;;;;;;;10.89;51.01;102059.81;1539267;91;21650;-70
2022/02/12 03:13:38;;;;;;;21.70;12.93;;;;;;;10.88;50.84;102065.88;1564127;90;21547;-70
2022/02/12 03:16:08;;;;;;;19.87;13.30;;;;;;;10.85;50.67;102069.80;1622609;87;21134;-70
2022/02/12 03:18:38;;;;;;;19.70;13.55;;;;;;;10.82;50.71;102073.70;1620487;87;21124;-71
2022/02/12 03:21:05;;;;;;;17.90;12.13;;;;;;;10.79;50.77;102080.23;1620753;88;21059;-70
2022/02/12 03:23:33;;;;;;;15.30;11.80;;;;;;;10.74;50.77;102076.75;1619917;86;21114;-71
2022/02/12 03:25:59;;;;;;;14.03;11.50;;;;;;;10.72;50.71;102076.31;1624444;87;21597;-70
2022/02/12 03:28:26;;;;;;;14.15;11.85;;;;;;;10.67;50.64;102075.05;1624099;87;21613;-71
2022/02/12 03:30:53;;;;;;;15.83;11.50;;;;;;;10.63;50.50;102083.27;1622824;88;21064;-71
2022/02/12 03:33:19;;;;;;;16.23;12.47;;;;;;;10.60;50.45;102085.89;1613619;87;21631;-71
2022/02/12 03:35:46;;;;;;;14.85;11.73;;;;;;;10.59;50.46;102084.14;1622744;88;21073;-70
2022/02/12 03:38:26;;;;;;;15.93;11.18;;;;;;;10.59;50.49;102085.90;1618758;86;21101;-71
2022/02/12 03:43:24;;;;;;;17.45;11.78;;;;;;;10.59;50.22;102092.41;1542707;92;21573;-71
2022/02/12 03:45:53;;;;;;;16.00;11.63;;;;;;;10.61;50.09;102095.42;1547536;91;21601;-70
2022/02/12 03:48:21;;;;;;;17.70;12.43;;;;;;;10.63;49.87;102087.63;1539315;92;21069;-70
2022/02/12 03:50:47;;;;;;;16.12;12.55;;;;;;;10.64;49.78;102095.86;1535881;92;21624;-70
2022/02/12 03:53:14;;;;;;;22.55;12.13;;;;;;;10.64;49.77;102112.78;1511398;93;21086;-71
2022/02/12 03:55:40;;;;;;;16.70;12.10;;;;;;;10.62;49.74;102103.67;1520720;94;21083;-72
2022/02/12 03:58:09;;;;;;;13.85;10.88;;;;;;;10.61;49.70;102104.98;1542667;92;21613;-71
2022/02/12 04:00:38;;;;;;;15.28;11.15;;;;;;;10.59;49.75;102109.33;1545571;92;21071;-70
2022/02/12 04:03:06;;;;;;;16.85;11.97;;;;;;;10.58;49.86;102111.05;1548697;91;21075;-70
2022/02/12 04:05:33;;;;;;;16.60;12.40;;;;;;;10.58;50.01;102111.48;1529605;91;21078;-71
2022/02/12 04:07:59;;;;;;;15.58;11.15;;;;;;;10.55;50.14;102107.13;1545095;92;21087;-71
2022/02/12 04:10:28;;;;;;;14.78;11.63;;;;;;;10.54;50.29;102109.32;1544142;92;21257;-71
2022/02/12 04:12:55;;;;;;;16.20;12.10;;;;;;;10.53;50.41;102105.42;1544620;92;21072;-71
2022/02/12 04:15:22;;;;;;;15.00;11.55;;;;;;;10.53;50.42;102115.84;1542903;92;21087;-70
2022/02/12 04:17:49;;;;;;;17.67;13.35;;;;;;;10.52;50.45;102131.00;1546909;92;21106;-71
2022/02/12 04:20:18;;;;;;;19.87;13.68;;;;;;;10.48;50.36;102137.95;1542582;91;21236;-70
2022/02/12 04:22:45;;;;;;;18.52;13.40;;;;;;;10.46;50.26;102142.71;1525356;92;21108;-71
2022/02/12 04:25:15;;;;;;;16.90;13.60;;;;;;;10.45;50.28;102146.16;1539996;92;21595;-70
2022/02/12 04:27:42;;;;;;;17.02;13.95;;;;;;;10.42;50.22;102143.58;1476743;95;21133;-70
2022/02/12 04:30:09;;;;;;;18.20;14.60;;;;;;;10.39;50.24;102148.77;1480424;95;21120;-71
2022/02/12 04:32:36;;;;;;;16.23;13.32;;;;;;;10.37;50.12;102155.70;1482746;95;21084;-71
2022/02/12 04:35:04;;;;;;;16.45;14.20;;;;;;;10.31;50.04;102157.88;1494317;94;21141;-71
2022/02/12 04:37:31;;;;;;;17.37;14.03;;;;;;;10.25;50.09;102155.69;1489744;95;21587;-71
2022/02/12 04:39:58;;;;;;;15.58;13.60;;;;;;;10.21;50.19;102155.25;1484238;93;21658;-71
2022/02/12 04:42:25;;;;;;;17.67;13.83;;;;;;;10.16;50.34;102163.48;1502151;94;21145;-71
2022/02/12 04:44:52;;;;;;;19.25;15.10;;;;;;;10.12;50.40;102168.25;1505220;94;21151;-71
2022/02/12 04:47:21;;;;;;;20.08;15.72;;;;;;;10.06;50.43;102169.47;1501539;95;21113;-72
2022/02/12 04:49:49;;;;;;;19.75;16.15;;;;;;;9.99;50.57;102178.14;1502470;94;21117;-71
2022/02/12 04:52:17;;;;;;;20.65;17.25;;;;;;;9.94;50.84;102182.44;1499003;95;21112;-71
2022/02/12 04:54:44;;;;;;;21.45;17.07;;;;;;;9.93;51.13;102187.22;1499872;95;21647;-71
2022/02/12 04:57:10;;;;;;;24.55;19.90;;;;;;;9.92;51.41;102194.56;1504356;94;21150;-70
2022/02/12 04:59:37;;;;;;;23.90;19.30;;;;;;;9.94;51.53;102188.52;1518924;90;21151;-71
2022/02/12 05:02:05;;;;;;;23.12;18.52;;;;;;;9.95;51.63;102194.59;1583513;90;21071;-71
2022/02/12 05:04:32;;;;;;;23.57;19.32;;;;;;;9.96;51.74;102200.21;1583614;90;21075;-70
2022/02/12 05:06:59;;;;;;;22.22;17.62;;;;;;;9.97;51.83;102204.14;1599831;88;21564;-72
2022/02/12 05:09:26;;;;;;;21.48;17.00;;;;;;;10.00;51.93;102200.66;1588286;87;21104;-71
2022/02/12 05:11:54;;;;;;;26.37;18.80;;;;;;;10.01;51.99;102203.71;1571487;90;21133;-70
2022/02/12 05:14:21;;;;;;;21.12;18.60;;;;;;;10.03;51.93;102204.59;1588443;90;21067;-71
2022/02/12 05:16:48;;;;;;;21.65;18.25;;;;;;;10.04;52.11;102198.50;1556003;92;21137;-72
2022/02/12 05:19:15;;;;;;;23.50;18.95;;;;;;;10.04;52.29;102211.50;1581935;89;21051;-72
2022/02/12 05:21:42;;;;;;;25.12;18.77;;;;;;;10.02;52.31;102206.31;1546747;92;21067;-70
2022/02/12 05:24:09;;;;;;;25.10;18.52;;;;;;;10.03;52.42;102213.69;1596509;86;21155;-71
2022/02/12 05:26:36;;;;;;;30.02;20.35;;;;;;;10.02;52.49;102214.53;1628457;86;21501;-70
2022/02/12 05:29:03;;;;;;;23.18;18.75;;;;;;;10.02;52.56;102218.44;1665782;84;21069;-71
2022/02/12 05:31:30;;;;;;;25.50;18.62;;;;;;;9.99;52.71;102212.81;1674085;85;21546;-71
2022/02/12 05:33:56;;;;;;;24.57;19.42;;;;;;;9.99;52.74;102222.34;1618505;86;21089;-70
2022/02/12 05:36:23;;;;;;;21.57;18.48;;;;;;;9.96;52.80;102224.48;1676068;85;21093;-71
2022/02/12 05:38:50;;;;;;;23.45;19.70;;;;;;;9.91;52.94;102235.32;1670104;85;21084;-71
2022/02/12 05:41:17;;;;;;;24.18;18.40;;;;;;;9.87;53.05;102240.50;1663163;85;21057;-71
2022/02/12 05:43:43;;;;;;;22.00;17.98;;;;;;;9.83;53.14;102244.36;1665784;85;21549;-71
2022/02/12 05:46:11;;;;;;;21.50;17.17;;;;;;;9.80;53.29;102249.98;1673968;85;21084;-71
2022/02/12 05:48:38;;;;;;;25.10;18.00;;;;;;;9.75;53.43;102257.75;1678465;85;21014;-71
2022/02/12 05:51:05;;;;;;;20.65;16.65;;;;;;;9.75;53.53;102260.36;1667875;85;21178;-71
2022/02/12 05:53:32;;;;;;;23.77;17.30;;;;;;;9.74;53.56;102266.85;1657844;85;21006;-70
2022/02/12 05:55:58;;;;;;;19.70;16.30;;;;;;;9.70;53.59;102275.50;1669382;85;21065;-71
2022/02/12 05:58:25;;;;;;;19.07;15.58;;;;;;;9.67;53.66;102277.64;1680343;85;21022;-71
2022/02/12 06:00:52;;;;;;;17.02;13.62;;;;;;;9.66;53.66;102278.52;1668471;85;21081;-71
2022/02/12 06:03:18;;;;;;;20.10;15.40;;;;;;;9.66;53.68;102283.72;1666695;85;21052;-71
2022/02/12 06:05:46;;;;;;;19.95;15.15;;;;;;;9.64;53.58;102281.50;1675813;85;21058;-70
2022/02/12 06:08:13;;;;;;;16.67;13.40;;;;;;;9.64;53.67;102290.59;1675392;85;21545;-72
2022/02/12 06:10:41;;;;;;;14.33;12.82;;;;;;;9.63;53.73;102297.97;1632632;86;21085;-71
2022/02/12 06:13:10;;;;;;;14.63;12.28;;;;;;;9.63;53.82;102299.69;1636801;86;21718;-72
2022/02/12 06:15:37;;;;;;;17.95;12.68;;;;;;;9.64;53.82;102307.95;1620188;87;21094;-71
2022/02/12 06:18:05;;;;;;;14.95;12.20;;;;;;;9.63;53.84;102312.69;1635351;86;21118;-71
2022/02/12 06:20:32;;;;;;;15.63;13.05;;;;;;;9.62;53.82;102323.51;1628713;86;21122;-72
2022/02/12 06:22:59;;;;;;;14.03;11.60;;;;;;;9.62;53.75;102327.41;1669436;85;21102;-72
2022/02/12 06:25:26;;;;;;;13.48;11.05;;;;;;;9.64;53.79;102313.98;1675171;85;21129;-71
2022/02/12 06:27:53;;;;;;;16.80;12.43;;;;;;;9.66;53.68;102322.70;1671280;85;21034;-73
2022/02/12 06:30:20;;;;;;;12.88;11.28;;;;;;;9.68;53.59;102323.58;1673158;85;21065;-71
2022/02/12 06:32:47;;;;;;;13.80;12.13;;;;;;;9.71;53.47;102326.60;1659894;86;21541;-71
2022/02/12 06:35:14;;;;;;;15.72;11.85;;;;;;;9.71;53.46;102330.08;1643672;86;21609;-72
2022/02/12 06:37:40;;;;;;;14.85;11.80;;;;;;;9.71;53.49;102332.68;1604752;87;21505;-71
2022/02/12 06:40:09;;;;;;;14.75;11.20;;;;;;;9.72;53.41;102335.73;1652401;85;21552;-71
2022/02/12 06:42:35;;;;;;;13.15;11.63;;;;;;;9.73;53.44;102343.95;1677491;85;21163;-71
2022/02/12 06:45:02;;;;;;;14.10;11.90;;;;;;;9.73;53.47;102342.66;1674417;84;21027;-71
2022/02/12 06:47:29;;;;;;;15.10;11.00;;;;;;;9.75;53.43;102340.94;1672031;85;21034;-71
2022/02/12 06:49:55;;;;;;;15.15;10.80;;;;;;;9.75;53.41;102346.14;1679732;85;21026;-71
2022/02/12 06:52:22;;;;;;;13.30;11.12;;;;;;;9.75;53.34;102347.44;1672585;85;21585;-71
2022/02/12 06:54:49;;;;;;;11.95;10.55;;;;;;;9.73;53.36;102344.38;1636302;86;21474;-71
2022/02/12 06:57:15;;;;;;;13.18;10.72;;;;;;;9.71;53.44;102350.88;1645328;86;21078;-71
2022/02/12 06:59:43;;;;;;;13.62;10.65;;;;;;;9.70;53.45;102363.45;1677464;85;21566;-71
2022/02/12 07:02:09;;;;;;;13.13;10.23;;;;;;;9.68;53.37;102356.07;1680496;85;21541;-71
2022/02/12 07:04:36;;;;;;;12.75;9.53;;;;;;;9.66;53.34;102373.80;1672902;85;20989;-70
2022/02/12 07:07:04;;;;;;;12.13;9.15;;;;;;;9.66;53.25;102374.69;1671735;85;21027;-73
2022/02/12 07:09:30;;;;;;;9.65;8.65;;;;;;;9.63;53.29;102371.17;1645193;85;21057;-72
2022/02/12 07:11:57;;;;;;;10.25;7.22;;;;;;;9.62;53.22;102372.89;1670261;85;21056;-70
2022/02/12 07:14:25;;;;;;;9.18;7.70;;;;;;;9.58;53.15;102386.72;1675979;85;21034;-72
2022/02/12 07:16:51;;;;;;;8.05;5.95;;;;;;;9.57;53.30;102371.12;1672229;85;21054;-71
2022/02/12 07:19:17;;;;;;;6.75;5.22;;;;;;;9.54;53.36;102383.66;1672768;85;21572;-71
2022/02/12 07:21:44;;;;;;;5.62;5.05;;;;;;;9.53;53.37;102388.42;1675029;85;21835;-72
2022/02/12 07:24:11;;;;;;;5.45;4.50;;;;;;;9.53;53.39;102400.12;1674093;85;21043;-71
2022/02/12 07:26:39;;;;;;;5.70;4.45;;;;;;;9.53;53.38;102400.54;1675946;85;21109;-71
2022/02/12 07:29:07;;;;;;;5.08;4.40;;;;;;;9.55;53.31;102412.70;1673830;85;21097;-72
2022/02/12 07:31:33;;;;;;;4.90;3.75;;;;;;;9.55;53.22;102419.19;1672962;85;21068;-71
2022/02/12 07:34:00;;;;;;;4.10;3.67;;;;;;;9.53;53.17;102417.01;1671243;85;21055;-70
2022/02/12 07:36:27;;;;;;;4.12;2.92;;;;;;;9.52;53.11;102428.25;1666337;85;21565;-71
2022/02/12 07:38:53;;;;;;;3.65;3.30;;;;;;;9.47;53.00;102432.55;1682572;85;21533;-71
2022/02/12 07:41:20;;;;;;;3.45;2.62;;;;;;;9.41;53.13;102429.89;1678358;85;21007;-70
2022/02/12 07:43:47;;;;;;;3.77;2.52;;;;;;;9.40;53.25;102448.92;1675779;85;21111;-71
2022/02/12 07:46:14;;;;;;;3.05;2.80;;;;;;;9.39;53.21;102448.91;1670769;85;21043;-72
2022/02/12 07:48:43;;;;;;;4.80;2.80;;;;;;;9.35;53.25;102449.74;1668358;85;21101;-70
2022/02/12 07:51:09;;;;;;;4.87;2.72;;;;;;;9.31;53.45;102460.53;1626361;87;21113;-71
2022/02/12 07:53:36;;;;;;;4.03;3.40;;;;;;;9.27;53.63;102469.58;1650607;85;21100;-71
2022/02/12 07:56:04;;;;;;;3.60;2.87;;;;;;;9.24;53.78;102478.20;1663807;85;21105;-72
2022/02/12 07:58:32;;;;;;;3.98;3.00;;;;;;;9.22;53.87;102485.10;1615456;87;21102;-71
2022/02/12 08:00:58;;;;;;;4.75;3.27;;;;;;;9.19;54.04;102487.65;1612406;86;21061;-72
2022/02/12 08:03:26;;;;;;;5.22;3.40;;;;;;;9.17;54.21;102496.30;1611571;88;21158;-71
2022/02/12 08:05:53;;;;;;;4.50;3.42;;;;;;;9.14;54.26;102507.52;1669372;85;21475;-71
2022/02/12 08:08:20;;;;;;;4.05;3.40;;;;;;;9.12;54.24;102507.92;1678644;85;21033;-71
2022/02/12 08:13:33;;;;;;;3.77;3.45;;;;;;;9.06;54.39;102526.03;1668343;85;21132;-72
2022/02/12 08:16:00;;;;;;;4.40;3.95;;;;;;;9.04;54.58;102534.23;1673158;85;21576;-71
2022/02/12 08:18:28;;;;;;;4.83;3.72;;;;;;;9.04;54.68;102538.13;1675905;85;21533;-71
2022/02/12 08:20:54;;;;;;;4.58;3.72;;;;;;;9.02;54.78;102538.53;1666955;85;21512;-71
2022/02/12 08:23:21;;;;;;;7.47;4.05;;;;;;;8.99;54.77;102546.27;1672038;85;21538;-70
2022/02/12 08:25:48;;;;;;;4.53;4.03;;;;;;;8.95;54.86;102549.67;1676109;85;21557;-71
2022/02/12 08:28:14;;;;;;;3.77;3.42;;;;;;;8.92;55.02;102558.73;1677032;85;21066;-72
2022/02/12 08:30:41;;;;;;;5.05;4.10;;;;;;;8.86;55.22;102567.74;1676089;84;21581;-71
2022/02/12 08:33:09;;;;;;;4.50;3.75;;;;;;;8.84;55.28;102573.34;1680818;85;21085;-70
2022/02/12 08:35:35;;;;;;;5.15;4.05;;;;;;;8.84;55.26;102572.05;1668787;85;21497;-72
2022/02/12 08:38:02;;;;;;;4.22;3.83;;;;;;;8.82;55.22;102575.05;1677556;84;21513;-71
2022/02/12 08:40:28;;;;;;;4.37;3.98;;;;;;;8.82;55.27;102578.94;1668966;85;21022;-71
2022/02/12 08:42:55;;;;;;;5.05;4.00;;;;;;;8.81;55.25;102591.03;1674398;85;20979;-72
2022/02/12 08:45:21;;;;;;;4.30;3.80;;;;;;;8.81;55.16;102603.13;1677714;85;21098;-71
2022/02/12 08:47:48;;;;;;;4.42;4.03;;;;;;;8.80;55.22;102590.98;1678586;85;21090;-72
2022/02/12 08:50:15;;;;;;;4.30;3.90;;;;;;;8.84;55.25;102595.41;1680592;85;21077;-71
2022/02/12 08:52:44;;;;;;;5.92;4.40;;;;;;;8.86;55.14;102610.58;1679213;85;21550;-72
2022/02/12 08:55:11;;;;;;;3.90;3.50;;;;;;;8.88;55.12;102615.37;1681378;85;21023;-71
2022/02/12 08:57:38;;;;;;;5.25;3.60;;;;;;;8.87;55.12;102623.57;1674355;85;21523;-73
2022/02/12 09:00:06;;;;;;;3.72;3.37;;;;;;;8.87;55.01;102623.98;1670135;85;21532;-72
2022/02/12 09:02:35;;;;;;;6.33;3.67;;;;;;;8.87;55.00;102631.77;1666082;85;21089;-73
2022/02/12 09:05:02;;;;;;;3.70;3.30;;;;;;;8.87;54.87;102633.95;1661030;84;21556;-71
2022/02/12 09:07:29;;;;;;;4.20;3.70;;;;;;;8.89;54.60;102638.74;1669065;85;21573;-73
2022/02/12 09:09:58;;;;;;;4.10;3.70;;;;;;;8.87;54.37;102655.14;1672665;85;21528;-72
2022/02/12 09:12:25;;;;;;;4.15;3.72;;;;;;;8.83;54.34;102648.16;1629768;86;21139;-72
2022/02/12 09:14:51;;;;;;;4.80;3.72;;;;;;;8.80;54.39;102654.58;1624017;84;21013;-72
2022/02/12 09:17:18;;;;;;;6.10;3.40;;;;;;;8.79;54.38;102660.64;1636771;84;21026;-72
2022/02/12 09:19:44;;;;;;;3.25;2.92;;;;;;;8.79;54.39;102669.72;1654014;85;21015;-73
2022/02/12 09:22:11;;;;;;;3.95;3.55;;;;;;;8.79;54.27;102677.52;1627723;86;21122;-69
2022/02/12 09:24:37;;;;;;;4.62;3.58;;;;;;;8.77;54.15;102671.42;1651553;84;21076;-70
2022/02/12 09:27:04;;;;;;;4.08;3.77;;;;;;;8.78;54.04;102676.63;1642832;85;21177;-68
2022/02/12 09:29:33;;;;;;;4.70;4.28;;;;;;;8.82;53.98;102676.28;1645185;84;21061;-69
2022/02/12 09:31:59;;;;;;;7.12;5.92;;;;;;;8.81;53.87;102687.08;1628291;86;21080;-70
2022/02/12 09:34:26;;;;;;;10.80;6.60;;;;;;;8.82;53.80;102682.77;1659431;86;21172;-70
2022/02/12 09:36:52;;;;;;;9.93;7.20;;;;;;;8.82;53.73;102687.95;1633337;85;21555;-70
2022/02/12 09:39:19;;;;;;;5.40;4.85;;;;;;;8.83;53.55;102685.80;1633493;85;21078;-71
2022/02/12 09:41:46;;;;;;;3.60;3.22;;;;;;;8.86;53.38;102689.75;1621045;86;21135;-69
2022/02/12 09:44:13;;;;;;;3.20;2.85;;;;;;;8.85;53.38;102695.78;1675181;85;21053;-70
2022/02/12 09:46:45;;;;;;;2.70;2.50;;;;;;;8.84;53.28;102691.45;1674990;85;21084;-72
2022/02/12 09:49:11;;;;;;;3.45;2.75;;;;;;;8.86;53.28;102691.05;1633734;86;21647;-71
2022/02/12 09:51:38;;;;;;;3.05;2.75;;;;;;;8.87;53.03;102688.89;1636169;86;21018;-71
2022/02/12 09:54:04;;;;;;;3.75;2.72;;;;;;;8.87;52.97;102690.19;1631879;86;21058;-71
2022/02/12 09:56:34;;;;;;;3.00;2.70;;;;;;;8.86;52.89;102682.81;1636213;86;21080;-71
2022/02/12 09:59:02;;;;;;;3.05;2.45;;;;;;;8.87;52.70;102686.30;1631894;86;21109;-72
2022/02/12 10:01:29;;;;;;;3.50;2.33;;;;;;;8.85;52.72;102691.47;1627710;87;21528;-70
2022/02/12 10:03:55;;;;;;;2.47;2.10;;;;;;;8.88;52.68;102699.73;1627734;87;21548;-71
2022/02/12 10:06:42;;;;;;;2.45;2.20;;;;;;;8.90;52.62;102709.72;1624091;87;21550;-72
2022/02/12 10:09:09;;;;;;;2.70;2.40;;;;;;;8.90;52.27;102714.91;1598787;88;21096;-70
2022/02/12 10:11:47;;;;;;;1.90;1.70;;;;;;;8.91;52.17;102712.33;1619526;88;21043;-72
2022/02/12 10:14:17;;;;;;;2.90;1.98;;;;;;;8.94;52.13;102711.52;1565763;91;21697;-72
2022/02/12 10:17:00;;;;;;;2.15;1.57;;;;;;;8.98;51.76;102727.59;1555308;91;21219;-71
2022/02/12 10:19:43;;;;;;;5.53;1.87;;;;;;;9.01;51.45;102736.70;1559922;91;21129;-71
2022/02/12 10:22:13;;;;;;;;;;;;;;;9.05;51.27;102737.66;1559763;91;21112;-71
2022/02/12 10:24:54;;;;;;;2.50;1.55;;;;;;;9.09;50.99;102742.89;1550208;91;20395;-69
2022/02/12 10:27:24;;;;;;;2.58;1.57;;;;;;;9.10;50.90;102742.06;1565287;90;21569;-69
2022/02/12 10:29:52;;;;;;;1.70;1.42;;;;;;;9.13;50.69;102742.09;1557893;90;21068;-70
2022/02/12 10:32:21;;;;;;;2.10;1.30;;;;;;;9.16;50.64;102746.47;1563801;90;21054;-69
2022/02/12 10:34:49;;;;;;;1.52;1.05;;;;;;;9.18;50.50;102752.14;1563987;91;21583;-69
2022/02/12 10:37:20;;;;;;;1.47;1.20;;;;;;;9.23;50.50;102748.33;1564227;90;21125;-68
2022/02/12 10:40:01;;;;;;;2.25;1.50;;;;;;;9.27;50.40;102752.72;1558494;90;21151;-68
2022/02/12 10:42:30;;;;;;;1.70;1.40;;;;;;;9.30;50.24;102749.73;1510999;92;21139;-69
2022/02/12 10:44:56;;;;;;;2.27;1.80;;;;;;;9.33;50.21;102755.41;1552325;90;21073;-69
2022/02/12 10:47:23;;;;;;;3.22;1.72;;;;;;;9.35;50.08;102755.00;1500773;93;21124;-71
2022/02/12 10:49:50;;;;;;;1.87;1.57;;;;;;;9.37;49.90;102759.38;1518713;93;21188;-68
2022/02/12 10:52:17;;;;;;;1.40;1.17;;;;;;;9.39;50.08;102760.27;1517999;93;21577;-70
2022/02/12 10:54:47;;;;;;;1.15;1.00;;;;;;;9.42;49.63;102764.20;1500727;93;21096;-70
2022/02/12 10:57:15;;;;;;;0.98;0.82;;;;;;;9.40;49.64;102765.89;1516770;93;21138;-71
2022/02/12 10:59:44;;;;;;;1.30;1.00;;;;;;;9.37;49.76;102772.37;1539204;91;21095;-69
2022/02/12 11:02:18;;;;;;;1.72;1.20;;;;;;;9.38;49.71;102772.80;1564337;90;21669;-70
2022/02/12 11:04:48;;;;;;;1.85;1.35;;;;;;;9.42;49.41;102782.39;1507052;93;21096;-69
2022/02/12 11:07:16;;;;;;;2.05;1.70;;;;;;;9.47;49.16;102785.94;1514194;93;21149;-69
2022/02/12 11:09:44;;;;;;;3.00;1.35;;;;;;;9.53;48.82;102799.02;1512566;94;21126;-71
2022/02/12 11:12:11;;;;;;;2.90;1.50;;;;;;;9.59;48.44;102789.13;1510608;94;21151;-70
2022/02/12 11:14:38;;;;;;;3.55;1.57;;;;;;;9.67;47.80;102794.89;1512486;94;21126;-72
2022/02/12 11:17:09;;;;;;;2.55;1.62;;;;;;;9.72;47.32;102788.05;1508965;94;21089;-71
2022/02/12 11:19:36;;;;;;;2.47;1.87;;;;;;;9.76;47.43;102795.03;1476581;97;21624;-70
2022/02/12 11:22:03;;;;;;;2.80;1.55;;;;;;;9.80;47.38;102789.02;1474375;97;21230;-71
2022/02/12 11:24:39;;;;;;;1.72;1.60;;;;;;;9.80;46.75;102800.72;1470255;97;21642;-70
2022/02/12 11:27:25;;;;;;;1.80;1.47;;;;;;;9.81;46.95;102805.47;1472796;97;21116;-71
2022/02/12 11:29:54;;;;;;;1.60;1.50;;;;;;;9.81;47.23;102814.16;1413313;100;21643;-71
2022/02/12 11:32:27;;;;;;;3.52;1.77;;;;;;;9.82;46.78;102822.42;1417568;101;21089;-70
2022/02/12 11:35:11;;;;;;;1.80;1.37;;;;;;;9.82;46.50;102828.04;1413506;101;21151;-70